createdAt,value
2022-09-28T00:01:23.993Z,8.89
2022-09-28T00:03:54.619Z,8.91
2022-09-28T00:06:26.815Z,8.92
2022-09-28T00:08:55.146Z,8.96
2022-09-28T00:11:25.497Z,8.98
2022-09-28T00:13:56.662Z,9.00
2022-09-28T00:16:27.965Z,9.02
2022-09-28T00:18:57.586Z,9.04
2022-09-28T00:21:28.221Z,9.06
2022-09-28T00:24:13.440Z,9.08
2022-09-28T00:26:44.903Z,9.10
2022-09-28T00:29:27.770Z,9.12
2022-09-28T00:32:00.280Z,9.13
2022-09-28T00:34:38.623Z,9.15
2022-09-28T00:37:09.272Z,9.17
2022-09-28T00:39:38.492Z,9.21
2022-09-28T00:42:19.475Z,9.23
2022-09-28T00:44:49.252Z,9.28
2022-09-28T00:47:25.982Z,9.31
2022-09-28T00:50:09.299Z,9.34
2022-09-28T00:53:11.803Z,9.38
2022-09-28T00:55:54.842Z,9.41
2022-09-28T00:58:32.173Z,9.44
2022-09-28T01:01:00.529Z,9.47
2022-09-28T01:03:29.663Z,9.50
2022-09-28T01:06:01.871Z,9.52
2022-09-28T01:08:32.745Z,9.55
2022-09-28T01:11:01.532Z,9.56
2022-09-28T01:13:33.077Z,9.57
2022-09-28T01:16:19.698Z,9.58
2022-09-28T01:18:59.377Z,9.60
2022-09-28T01:21:54.676Z,9.61
2022-09-28T01:24:48.185Z,9.64
2022-09-28T01:27:42.044Z,9.66
2022-09-28T01:30:17.231Z,9.67
2022-09-28T01:32:58.691Z,9.69
2022-09-28T01:35:35.528Z,9.71
2022-09-28T01:38:09.480Z,9.72
2022-09-28T01:40:38.211Z,9.74
2022-09-28T01:43:10.437Z,9.77
2022-09-28T01:45:49.120Z,9.81
2022-09-28T01:48:36.058Z,9.84
2022-09-28T01:51:10.583Z,9.85
2022-09-28T01:53:53.390Z,9.87
2022-09-28T01:56:31.886Z,9.88
2022-09-28T01:59:08.429Z,9.90
2022-09-28T02:01:46.222Z,9.92
2022-09-28T02:04:21.151Z,9.94
2022-09-28T02:06:57.095Z,9.95
2022-09-28T02:09:33.894Z,9.96
2022-09-28T02:12:19.721Z,9.95
2022-09-28T02:14:52.886Z,9.95
2022-09-28T02:17:21.714Z,9.93
2022-09-28T02:19:49.979Z,9.91
2022-09-28T02:22:28.795Z,9.88
2022-09-28T02:25:04.256Z,9.85
2022-09-28T02:27:36.530Z,9.81
2022-09-28T02:30:05.921Z,9.76
2022-09-28T02:32:40.526Z,9.71
2022-09-28T02:35:12.828Z,9.66
2022-09-28T02:37:40.879Z,9.60
2022-09-28T02:40:20.507Z,9.57
2022-09-28T02:42:57.408Z,9.53
2022-09-28T02:45:48.958Z,9.48
2022-09-28T02:48:55.753Z,9.44
2022-09-28T02:51:52.157Z,9.41
2022-09-28T02:54:30.083Z,9.38
2022-09-28T02:57:13.474Z,9.35
2022-09-28T02:59:54.190Z,9.34
2022-09-28T03:02:31.265Z,9.31
2022-09-28T03:05:21.653Z,9.30
2022-09-28T03:07:59.833Z,9.28
2022-09-28T03:10:47.708Z,9.27
2022-09-28T03:13:18.835Z,9.26
2022-09-28T03:15:49.024Z,9.24
2022-09-28T03:18:18.775Z,9.23
2022-09-28T03:20:49.588Z,9.20
2022-09-28T03:23:24.711Z,9.17
2022-09-28T03:25:56.220Z,9.15
2022-09-28T03:28:26.060Z,9.11
2022-09-28T03:30:54.400Z,9.08
2022-09-28T03:33:23.078Z,9.06
2022-09-28T03:35:54.729Z,9.02
2022-09-28T03:38:22.900Z,8.98
2022-09-28T03:40:59.676Z,8.92
2022-09-28T03:43:30.466Z,8.91
2022-09-28T03:46:01.912Z,8.91
2022-09-28T03:48:33.473Z,8.91
2022-09-28T03:51:04.520Z,8.92
2022-09-28T03:53:35.560Z,8.92
2022-09-28T03:56:12.783Z,8.93
2022-09-28T03:58:42.492Z,8.93
2022-09-28T04:01:17.632Z,8.92
2022-09-28T04:04:01.197Z,8.90
2022-09-28T04:06:40.444Z,8.88
2022-09-28T04:09:08.667Z,8.85
2022-09-28T04:11:53.190Z,8.82
2022-09-28T04:14:24.869Z,8.77
2022-09-28T04:16:55.351Z,8.72
2022-09-28T04:19:27.668Z,8.65
2022-09-28T04:22:14.470Z,8.60
2022-09-28T04:24:43.951Z,8.56
2022-09-28T04:27:30.431Z,8.51
2022-09-28T04:29:58.254Z,8.46
2022-09-28T04:32:26.048Z,8.41
2022-09-28T04:34:57.163Z,8.37
2022-09-28T04:37:25.568Z,8.32
2022-09-28T04:39:53.355Z,8.27
2022-09-28T04:42:22.499Z,8.22
2022-09-28T04:44:51.043Z,8.17
2022-09-28T04:47:18.824Z,8.12
2022-09-28T04:50:09.825Z,8.05
2022-09-28T04:52:57.812Z,7.94
2022-09-28T04:55:25.721Z,7.88
2022-09-28T04:57:54.910Z,7.84
2022-09-28T05:00:22.738Z,7.83
2022-09-28T05:03:06.053Z,7.84
2022-09-28T05:05:58.010Z,7.82
2022-09-28T05:08:38.065Z,7.82
2022-09-28T05:11:10.756Z,7.84
2022-09-28T05:13:48.988Z,7.87
2022-09-28T05:16:18.467Z,7.95
2022-09-28T05:19:07.229Z,8.00
2022-09-28T05:21:39.232Z,8.02
2022-09-28T05:24:08.319Z,8.04
2022-09-28T05:26:38.791Z,8.04
2022-09-28T05:29:08.919Z,8.03
2022-09-28T05:31:48.669Z,8.04
2022-09-28T05:34:35.407Z,8.08
2022-09-28T05:37:03.351Z,8.19
2022-09-28T05:39:31.695Z,8.36
2022-09-28T05:41:59.575Z,8.60
2022-09-28T05:44:27.667Z,8.87
2022-09-28T05:46:55.874Z,9.15
2022-09-28T05:49:24.014Z,9.45
2022-09-28T05:51:52.172Z,9.73
2022-09-28T05:54:20.400Z,9.98
2022-09-28T05:56:48.508Z,10.23
2022-09-28T05:59:17.353Z,10.38
2022-09-28T06:01:46.507Z,10.45
2022-09-28T06:04:16.291Z,10.48
2022-09-28T06:06:45.146Z,10.49
2022-09-28T06:09:13.199Z,10.54
2022-09-28T06:12:13.147Z,10.59
2022-09-28T06:14:47.824Z,10.62
2022-09-28T06:17:16.348Z,10.63
2022-09-28T06:19:49.202Z,10.65
2022-09-28T06:22:28.700Z,10.67
2022-09-28T06:25:07.498Z,10.70
2022-09-28T06:27:36.157Z,10.74
2022-09-28T06:30:04.260Z,10.89
2022-09-28T06:32:32.519Z,11.13
2022-09-28T06:35:00.813Z,11.38
2022-09-28T06:37:30.439Z,11.61
2022-09-28T06:39:59.191Z,11.83
2022-09-28T06:42:27.665Z,12.04
2022-09-28T06:45:20.272Z,12.24
2022-09-28T06:48:17.772Z,12.40
2022-09-28T06:50:47.658Z,12.47
2022-09-28T06:53:38.307Z,12.41
2022-09-28T06:56:12.444Z,12.47
2022-09-28T06:58:43.378Z,12.56
2022-09-28T07:01:12.154Z,12.58
2022-09-28T07:03:55.426Z,12.62
2022-09-28T07:06:48.173Z,12.69
2022-09-28T07:09:40.307Z,12.79
2022-09-28T07:12:16.540Z,12.89
2022-09-28T07:15:04.037Z,12.95
2022-09-28T07:17:43.435Z,13.01
2022-09-28T07:20:26.526Z,13.10
2022-09-28T07:23:17.439Z,13.13
2022-09-28T07:26:09.151Z,13.07
2022-09-28T07:29:02.415Z,12.99
2022-09-28T07:31:45.486Z,12.98
2022-09-28T07:34:23.667Z,12.97
2022-09-28T07:37:16.022Z,12.95
2022-09-28T07:40:05.277Z,12.95
2022-09-28T07:42:37.723Z,12.94
2022-09-28T07:45:07.943Z,12.89
2022-09-28T07:47:35.756Z,12.81
2022-09-28T07:50:33.154Z,12.77
2022-09-28T07:53:15.505Z,12.82
2022-09-28T07:56:09.864Z,12.97
2022-09-28T07:58:52.159Z,13.09
2022-09-28T08:01:52.208Z,13.15
2022-09-28T08:04:20.752Z,13.21
2022-09-28T08:06:49.405Z,13.27
2022-09-28T08:09:17.786Z,13.32
2022-09-28T08:12:20.497Z,13.40
2022-09-28T08:15:00.683Z,13.51
2022-09-28T08:17:50.488Z,13.54
2022-09-28T08:20:40.681Z,13.55
2022-09-28T08:23:10.397Z,13.67
2022-09-28T08:25:39.323Z,13.81
2022-09-28T08:28:09.261Z,13.92
2022-09-28T08:30:48.249Z,13.96
2022-09-28T08:33:35.626Z,14.01
2022-09-28T08:36:32.454Z,14.17
2022-09-28T08:39:05.313Z,14.30
2022-09-28T08:41:55.106Z,14.41
2022-09-28T08:44:52.123Z,14.49
2022-09-28T08:48:34.179Z,14.53
2022-09-28T08:51:33.831Z,14.47
2022-09-28T08:54:34.989Z,14.44
2022-09-28T08:57:21.477Z,14.50
2022-09-28T08:59:53.766Z,14.54
2022-09-28T09:02:33.931Z,14.47
2022-09-28T09:05:20.120Z,14.46
2022-09-28T09:08:15.799Z,14.48
2022-09-28T09:11:13.464Z,14.51
2022-09-28T09:14:36.631Z,14.56
2022-09-28T09:17:25.765Z,14.74
2022-09-28T09:20:35.467Z,14.91
2022-09-28T09:23:35.718Z,15.05
2022-09-28T09:26:24.932Z,15.09
2022-09-28T09:29:11.819Z,15.13
2022-09-28T09:31:49.948Z,15.19
2022-09-28T09:34:33.416Z,15.16
2022-09-28T09:37:53.162Z,15.01
2022-09-28T09:41:02.270Z,14.96
2022-09-28T09:43:58.957Z,14.86
2022-09-28T09:47:08.187Z,14.80
2022-09-28T09:49:49.552Z,14.71
2022-09-28T09:55:10.633Z,14.43
2022-09-28T09:57:51.547Z,14.29
2022-09-28T10:00:50.317Z,14.15
2022-09-28T10:03:30.953Z,14.04
2022-09-28T10:06:22.895Z,13.92
2022-09-28T10:09:10.366Z,13.79
2022-09-28T10:11:44.683Z,13.55
2022-09-28T10:14:21.554Z,13.39
2022-09-28T10:17:02.588Z,13.29
2022-09-28T10:19:50.563Z,13.16
2022-09-28T10:22:44.024Z,13.04
2022-09-28T10:25:15.915Z,12.96
2022-09-28T10:27:47.640Z,12.93
2022-09-28T10:30:23.423Z,12.90
2022-09-28T10:32:55.212Z,12.87
2022-09-28T10:35:40.645Z,12.82
2022-09-28T10:38:21.220Z,12.81
2022-09-28T10:41:10.052Z,12.82
2022-09-28T10:44:08.880Z,12.78
2022-09-28T10:46:59.766Z,12.72
2022-09-28T10:49:37.165Z,12.69
2022-09-28T10:52:29.986Z,12.67
2022-09-28T10:55:01.482Z,12.62
2022-09-28T10:57:40.952Z,12.58
2022-09-28T11:00:47.042Z,12.56
2022-09-28T11:03:24.595Z,12.54
2022-09-28T11:05:55.382Z,12.46
2022-09-28T11:08:28.889Z,12.40
2022-09-28T11:11:02.986Z,12.37
2022-09-28T11:13:31.837Z,12.33
2022-09-28T11:16:04.682Z,12.30
2022-09-28T11:18:35.042Z,12.28
2022-09-28T11:21:16.802Z,12.26
2022-09-28T11:24:01.550Z,12.23
2022-09-28T11:26:40.980Z,12.21
2022-09-28T11:29:23.781Z,12.20
2022-09-28T11:32:06.978Z,12.16
2022-09-28T11:35:02.162Z,12.14
2022-09-28T11:37:51.969Z,12.13
2022-09-28T11:41:08.400Z,12.14
2022-09-28T11:43:42.587Z,12.15
2022-09-28T11:46:26.147Z,12.19
2022-09-28T11:48:59.850Z,12.26
2022-09-28T11:51:32.608Z,12.31
2022-09-28T11:54:34.680Z,12.33
2022-09-28T11:57:05.295Z,12.43
2022-09-28T11:59:56.731Z,12.50
2022-09-28T12:02:37.561Z,12.59
2022-09-28T12:05:21.374Z,12.70
2022-09-28T12:07:59.838Z,12.81
2022-09-28T12:11:00.450Z,12.89
2022-09-28T12:13:52.810Z,12.95
2022-09-28T12:16:53.700Z,12.98
2022-09-28T12:19:21.882Z,13.02
2022-09-28T12:21:53.259Z,13.05
2022-09-28T12:24:29.470Z,13.10
2022-09-28T12:27:35.310Z,13.17
2022-09-28T12:30:22.154Z,13.26
2022-09-28T12:33:08.923Z,13.41
2022-09-28T12:36:00.567Z,13.61
2022-09-28T12:38:54.130Z,13.79
2022-09-28T12:41:50.704Z,13.92
2022-09-28T12:44:47.425Z,13.93
2022-09-28T12:47:45.985Z,13.90
2022-09-28T12:50:47.503Z,13.87
2022-09-28T12:53:32.475Z,13.82
2022-09-28T12:56:16.833Z,13.79
2022-09-28T12:59:16.313Z,13.77
2022-09-28T13:02:23.328Z,13.75
2022-09-28T13:05:34.877Z,13.70
2022-09-28T13:08:13.768Z,13.67
2022-09-28T13:10:52.888Z,13.65
2022-09-28T13:13:48.020Z,13.59
2022-09-28T13:16:39.063Z,13.52
2022-09-28T13:19:17.216Z,13.47
2022-09-28T13:22:22.077Z,13.46
2022-09-28T13:24:55.241Z,13.42
2022-09-28T13:27:33.536Z,13.48
2022-09-28T13:30:06.974Z,13.62
2022-09-28T13:32:39.150Z,13.75
2022-09-28T13:35:07.441Z,13.84
2022-09-28T13:37:35.538Z,13.84
2022-09-28T13:40:06.476Z,13.81
2022-09-28T13:42:44.606Z,13.80
2022-09-28T13:45:21.598Z,13.75
2022-09-28T13:48:20.455Z,13.69
2022-09-28T13:51:23.594Z,13.63
2022-09-28T13:54:08.996Z,13.66
2022-09-28T13:56:40.938Z,13.70
2022-09-28T13:59:19.634Z,13.68
2022-09-28T14:02:07.433Z,13.65
2022-09-28T14:04:58.314Z,13.68
2022-09-28T14:07:58.570Z,13.73
2022-09-28T14:10:57.119Z,13.77
2022-09-28T14:13:44.362Z,13.80
2022-09-28T14:16:24.279Z,13.88
2022-09-28T14:19:27.043Z,14.03
2022-09-28T14:22:22.042Z,14.31
2022-09-28T14:24:59.218Z,14.54
2022-09-28T14:27:33.540Z,14.67
2022-09-28T14:30:24.831Z,14.64
2022-09-28T14:32:58.984Z,14.60
2022-09-28T14:35:40.545Z,14.59
2022-09-28T14:39:03.440Z,14.59
2022-09-28T14:41:40.294Z,14.51
2022-09-28T14:44:10.998Z,14.45
2022-09-28T14:46:46.884Z,14.39
2022-09-28T14:49:18.269Z,14.35
2022-09-28T14:52:02.390Z,14.31
2022-09-28T14:54:56.937Z,14.29
2022-09-28T14:57:31.265Z,14.23
2022-09-28T15:00:00.932Z,14.16
2022-09-28T15:02:38.744Z,14.05
2022-09-28T15:05:06.749Z,13.94
2022-09-28T15:07:52.018Z,13.90
2022-09-28T15:10:32.501Z,13.92
2022-09-28T15:13:15.177Z,13.94
2022-09-28T15:15:50.709Z,13.93
2022-09-28T15:18:21.622Z,13.90
2022-09-28T15:20:50.458Z,13.87
2022-09-28T15:23:39.815Z,13.85
2022-09-28T15:26:24.485Z,13.83
2022-09-28T15:28:54.787Z,13.73
2022-09-28T15:31:26.427Z,13.61
2022-09-28T15:36:59.249Z,13.43
2022-09-28T15:39:58.317Z,13.38
2022-09-28T15:42:26.425Z,13.34
2022-09-28T15:45:26.662Z,13.35
2022-09-28T15:48:20.920Z,13.36
2022-09-28T15:51:16.666Z,13.35
2022-09-28T15:54:04.379Z,13.35
2022-09-28T15:56:52.062Z,13.31
2022-09-28T15:59:40.910Z,13.25
2022-09-28T16:02:17.058Z,13.18
2022-09-28T16:04:50.637Z,13.10
2022-09-28T16:07:23.319Z,13.04
2022-09-28T16:10:02.524Z,12.98
2022-09-28T16:12:38.973Z,12.90
2022-09-28T16:15:18.380Z,12.82
2022-09-28T16:17:52.594Z,12.76
2022-09-28T16:20:41.726Z,12.72
2022-09-28T16:23:22.210Z,12.68
2022-09-28T16:26:00.689Z,12.60
2022-09-28T16:28:37.904Z,12.54
2022-09-28T16:31:27.333Z,12.49
2022-09-28T16:34:01.716Z,12.44
2022-09-28T16:36:44.233Z,12.39
2022-09-28T16:39:14.128Z,12.37
2022-09-28T16:41:48.522Z,12.35
2022-09-28T16:44:23.842Z,12.32
2022-09-28T16:46:55.571Z,12.27
2022-09-28T16:49:28.432Z,12.18
2022-09-28T16:51:57.059Z,12.11
2022-09-28T16:54:43.983Z,12.07
2022-09-28T16:57:14.912Z,12.01
2022-09-28T16:59:44.050Z,11.95
2022-09-28T17:02:45.303Z,11.88
2022-09-28T17:05:10.565Z,11.81
2022-09-28T17:07:39.693Z,11.75
2022-09-28T17:10:23.728Z,11.69
2022-09-28T17:12:52.228Z,11.63
2022-09-28T17:15:20.457Z,11.56
2022-09-28T17:17:49.216Z,11.51
2022-09-28T17:20:29.866Z,11.44
2022-09-28T17:22:57.688Z,11.31
2022-09-28T17:25:27.311Z,11.20
2022-09-28T17:27:57.644Z,11.16
2022-09-28T17:30:26.303Z,11.14
2022-09-28T17:32:54.137Z,11.14
2022-09-28T17:35:24.599Z,11.13
2022-09-28T17:37:54.787Z,11.14
2022-09-28T17:40:28.522Z,11.15
2022-09-28T17:42:58.014Z,11.16
2022-09-28T17:45:31.398Z,11.16
2022-09-28T17:48:00.953Z,11.17
2022-09-28T17:50:33.785Z,11.17
2022-09-28T17:53:06.810Z,11.17
2022-09-28T17:55:37.003Z,11.15
2022-09-28T17:58:17.084Z,11.11
2022-09-28T18:00:50.149Z,11.05
2022-09-28T18:03:21.377Z,10.99
2022-09-28T18:05:58.205Z,10.92
2022-09-28T18:08:26.527Z,10.83
2022-09-28T18:10:55.022Z,10.76
2022-09-28T18:13:26.362Z,10.67
2022-09-28T18:15:56.161Z,10.60
2022-09-28T18:18:25.180Z,10.53
2022-09-28T18:20:53.315Z,10.46
2022-09-28T18:23:24.822Z,10.39
2022-09-28T18:25:53.098Z,10.35
2022-09-28T18:28:23.110Z,10.30
2022-09-28T18:30:51.491Z,10.26
2022-09-28T18:33:19.480Z,10.23
2022-09-28T18:35:52.993Z,10.21
2022-09-28T18:38:21.700Z,10.18
2022-09-28T18:40:50.141Z,10.15
2022-09-28T18:43:18.061Z,10.12
2022-09-28T18:45:46.088Z,10.11
2022-09-28T18:48:16.373Z,10.10
2022-09-28T18:50:45.188Z,10.08
2022-09-28T18:53:14.017Z,10.05
2022-09-28T18:55:43.288Z,10.03
2022-09-28T18:58:12.115Z,9.98
2022-09-28T19:00:41.186Z,9.95
2022-09-28T19:03:11.935Z,9.91
2022-09-28T19:05:43.702Z,9.87
2022-09-28T19:08:13.357Z,9.83
2022-09-28T19:10:41.397Z,9.77
2022-09-28T19:13:09.500Z,9.73
2022-09-28T19:15:39.198Z,9.68
2022-09-28T19:18:07.352Z,9.63
2022-09-28T19:20:36.052Z,9.58
2022-09-28T19:23:04.514Z,9.55
2022-09-28T19:25:35.396Z,9.50
2022-09-28T19:28:03.448Z,9.46
2022-09-28T19:30:32.139Z,9.41
2022-09-28T19:33:01.711Z,9.35
2022-09-28T19:35:31.127Z,9.30
2022-09-28T19:37:59.269Z,9.26
2022-09-28T19:40:27.780Z,9.22
2022-09-28T19:42:57.692Z,9.18
2022-09-28T19:45:25.500Z,9.14
2022-09-28T19:47:57.324Z,9.09
2022-09-28T19:50:27.111Z,9.05
2022-09-28T19:52:57.274Z,9.02
2022-09-28T19:55:25.322Z,8.98
2022-09-28T19:57:56.556Z,8.94
2022-09-28T20:00:25.356Z,8.90
2022-09-28T20:02:53.603Z,8.86
2022-09-28T20:05:21.348Z,8.83
2022-09-28T20:07:49.226Z,8.79
2022-09-28T20:10:17.109Z,8.74
2022-09-28T20:12:45.309Z,8.70
2022-09-28T20:15:13.411Z,8.66
2022-09-28T20:17:41.141Z,8.62
2022-09-28T20:20:09.638Z,8.59
2022-09-28T20:22:38.317Z,8.56
2022-09-28T20:25:06.491Z,8.52
2022-09-28T20:27:34.696Z,8.49
2022-09-28T20:30:03.334Z,8.46
2022-09-28T20:32:32.232Z,8.44
2022-09-28T20:35:02.343Z,8.42
2022-09-28T20:37:31.062Z,8.39
2022-09-28T20:40:01.049Z,8.36
2022-09-28T20:42:30.072Z,8.33
2022-09-28T20:44:58.336Z,8.29
2022-09-28T20:47:26.891Z,8.27
2022-09-28T20:49:54.785Z,8.23
2022-09-28T20:52:23.278Z,8.20
2022-09-28T20:54:51.061Z,8.16
2022-09-28T20:57:19.233Z,8.10
2022-09-28T20:59:52.283Z,8.05
2022-09-28T21:02:22.671Z,7.99
2022-09-28T21:04:50.432Z,7.94
2022-09-28T21:07:18.173Z,7.88
2022-09-28T21:09:45.977Z,7.85
2022-09-28T21:12:15.799Z,7.83
2022-09-28T21:14:44.328Z,7.79
2022-09-28T21:17:12.421Z,7.75
2022-09-28T21:19:40.358Z,7.73
2022-09-28T21:22:08.101Z,7.72
2022-09-28T21:24:35.928Z,7.69
2022-09-28T21:27:04.363Z,7.67
2022-09-28T21:29:32.066Z,7.62
2022-09-28T21:32:00.306Z,7.56
2022-09-28T21:34:28.538Z,7.51
2022-09-28T21:36:56.278Z,7.47
2022-09-28T21:39:25.396Z,7.44
2022-09-28T21:41:53.670Z,7.42
2022-09-28T21:44:21.829Z,7.42
2022-09-28T21:46:50.323Z,7.41
2022-09-28T21:49:19.601Z,7.40
2022-09-28T21:52:14.545Z,7.40
2022-09-28T21:54:42.721Z,7.37
2022-09-28T21:57:12.208Z,7.34
2022-09-28T21:59:39.931Z,7.31
2022-09-28T22:02:08.575Z,7.27
2022-09-28T22:04:38.984Z,7.22
2022-09-28T22:07:06.746Z,7.18
2022-09-28T22:09:34.589Z,7.15
2022-09-28T22:12:02.404Z,7.11
2022-09-28T22:14:30.135Z,7.06
2022-09-28T22:16:57.877Z,6.99
2022-09-28T22:19:26.932Z,6.93
2022-09-28T22:21:54.777Z,6.87
2022-09-28T22:24:22.551Z,6.83
2022-09-28T22:26:50.345Z,6.80
2022-09-28T22:29:18.506Z,6.76
2022-09-28T22:31:46.288Z,6.71
2022-09-28T22:34:14.178Z,6.66
2022-09-28T22:36:42.140Z,6.61
2022-09-28T22:39:09.962Z,6.54
2022-09-28T22:41:39.003Z,6.49
2022-09-28T22:44:06.793Z,6.47
2022-09-28T22:46:35.624Z,6.46
2022-09-28T22:49:05.263Z,6.45
2022-09-28T22:51:34.268Z,6.45
2022-09-28T22:54:02.001Z,6.43
2022-09-28T22:56:30.809Z,6.43
2022-09-28T22:58:59.289Z,6.42
2022-09-28T23:01:28.422Z,6.40
2022-09-28T23:03:58.822Z,6.39
2022-09-28T23:06:28.826Z,6.37
2022-09-28T23:08:57.228Z,6.35
2022-09-28T23:11:25.308Z,6.34
2022-09-28T23:13:54.346Z,6.35
2022-09-28T23:16:25.455Z,6.35
2022-09-28T23:18:54.475Z,6.37
2022-09-28T23:21:23.772Z,6.39
2022-09-28T23:23:53.395Z,6.40
2022-09-28T23:26:23.724Z,6.42
2022-09-28T23:28:53.154Z,6.42
2022-09-28T23:31:24.286Z,6.42
2022-09-28T23:33:53.470Z,6.43
2022-09-28T23:36:21.855Z,6.44
2022-09-28T23:38:49.727Z,6.46
2022-09-28T23:41:17.512Z,6.47
2022-09-28T23:43:45.307Z,6.49
2022-09-28T23:46:15.303Z,6.46
2022-09-28T23:48:45.155Z,6.41
2022-09-28T23:51:14.549Z,6.36
2022-09-28T23:53:43.505Z,6.32
2022-09-28T23:56:11.360Z,6.29
2022-09-28T23:58:40.821Z,6.27
